Time;durP1;ratioP1;P1;durP2;ratioP2;P2;SDS_P1;SDS_P2;PMS_P1;PMS_P2;Temp;Humidity;BMP_temperature;BMP_pressure;BME280_temperature;BME280_humidity;BME280_pressure;Samples;Min_cycle;Max_cycle;Signal;HPM_P1;HPM_P2
2022/11/26 00:01:18;;;;;;;28.50;11.10;;;7.40;99.90;;;;;;5075245;28;20173;-85
2022/11/26 00:03:45;;;;;;;23.10;11.30;;;7.40;99.90;;;;;;5075693;28;20612;-85
2022/11/26 00:06:36;;;;;;;29.00;13.20;;;7.50;99.90;;;;;;5074300;28;20185;-85
2022/11/26 00:09:04;;;;;;;28.07;12.07;;;7.40;99.90;;;;;;5071017;28;20188;-85
2022/11/26 00:11:30;;;;;;;27.63;11.53;;;7.50;99.90;;;;;;5073513;28;20208;-85
2022/11/26 00:13:56;;;;;;;30.00;11.50;;;7.50;99.90;;;;;;5073760;28;20220;-85
2022/11/26 00:16:22;;;;;;;24.17;11.50;;;7.50;99.90;;;;;;5073841;28;20205;-85
2022/11/26 00:18:47;;;;;;;28.93;11.73;;;7.40;99.90;;;;;;5075274;28;20204;-85
2022/11/26 00:21:25;;;;;;;31.33;12.03;;;7.40;99.90;;;;;;5074799;28;20671;-85
2022/11/26 00:23:52;;;;;;;26.13;12.13;;;7.40;99.90;;;;;;5073799;28;20173;-85
2022/11/26 00:26:23;;;;;;;24.97;11.40;;;7.40;99.90;;;;;;5073632;28;20188;-85
2022/11/26 00:28:55;;;;;;;30.13;12.73;;;7.40;99.90;;;;;;5075178;28;20162;-86
2022/11/26 00:31:22;;;;;;;26.03;12.30;;;7.40;99.90;;;;;;5073812;28;20192;-85
2022/11/26 00:33:47;;;;;;;24.43;12.47;;;7.40;99.90;;;;;;5073622;28;20643;-85
2022/11/26 00:36:17;;;;;;;34.70;13.20;;;7.50;99.90;;;;;;5073889;28;20216;-85
2022/11/26 00:38:44;;;;;;;23.43;11.70;;;7.50;99.90;;;;;;5073629;28;20604;-86
2022/11/26 00:41:19;;;;;;;27.97;12.27;;;7.50;99.90;;;;;;5073557;28;20558;-85
2022/11/26 00:43:45;;;;;;;31.13;12.33;;;7.50;99.90;;;;;;5073524;28;20200;-85
2022/11/26 00:46:15;;;;;;;27.50;12.30;;;7.40;99.90;;;;;;5074571;28;20161;-85
2022/11/26 00:48:41;;;;;;;26.93;13.27;;;7.40;99.90;;;;;;5074715;28;20169;-86
2022/11/26 00:51:20;;;;;;;26.37;12.87;;;7.40;99.90;;;;;;5073140;28;20184;-85
2022/11/26 00:53:48;;;;;;;35.23;13.00;;;7.40;99.90;;;;;;5073345;28;20177;-86
2022/11/26 00:56:19;;;;;;;30.10;12.47;;;7.40;99.90;;;;;;5071979;28;20282;-85
2022/11/26 00:58:46;;;;;;;29.15;12.63;;;7.40;99.90;;;;;;5074460;28;20195;-86
2022/11/26 01:01:20;;;;;;;37.90;12.93;;;7.40;99.90;;;;;;5073162;28;20551;-85
2022/11/26 01:03:46;;;;;;;32.47;12.93;;;7.40;99.90;;;;;;5073052;28;20235;-86
2022/11/26 01:06:20;;;;;;;26.50;12.80;;;7.40;99.90;;;;;;5074523;28;20181;-86
2022/11/26 01:08:46;;;;;;;28.53;12.27;;;7.30;99.90;;;;;;5072908;28;20195;-85
2022/11/26 01:11:16;;;;;;;28.77;12.03;;;7.30;99.90;;;;;;5073665;28;20627;-85
2022/11/26 01:13:44;;;;;;;33.23;13.10;;;7.30;99.90;;;;;;5074062;28;20618;-85
2022/11/26 01:16:28;;;;;;;28.77;13.57;;;7.20;99.90;;;;;;5072779;28;20212;-86
2022/11/26 01:18:56;;;;;;;29.90;12.87;;;7.20;99.90;;;;;;5074327;28;20173;-86
2022/11/26 01:21:24;;;;;;;32.77;12.83;;;7.20;99.90;;;;;;5072798;28;20230;-85
2022/11/26 01:23:50;;;;;;;33.93;13.30;;;7.20;99.90;;;;;;5074078;28;20170;-86
2022/11/26 01:26:26;;;;;;;32.10;13.27;;;7.20;99.90;;;;;;5071851;28;20185;-86
2022/11/26 01:28:53;;;;;;;22.73;11.93;;;7.20;99.90;;;;;;5074053;28;20169;-86
2022/11/26 01:31:24;;;;;;;24.47;11.57;;;7.20;99.90;;;;;;5072711;28;20191;-86
2022/11/26 01:33:51;;;;;;;28.57;11.93;;;7.20;99.90;;;;;;5072756;28;20177;-85
2022/11/26 01:36:22;;;;;;;26.00;12.47;;;7.10;99.90;;;;;;5072502;28;20213;-86
2022/11/26 01:38:49;;;;;;;27.33;12.10;;;7.10;99.90;;;;;;5072680;28;20557;-86
2022/11/26 01:41:39;;;;;;;23.20;12.10;;;7.10;99.90;;;;;;5072545;28;20268;-85
2022/11/26 01:44:12;;;;;;;29.30;12.13;;;7.10;99.90;;;;;;5066281;28;20211;-86
2022/11/26 01:49:23;;;;;;;29.47;12.77;;;7.00;99.90;;;;;;5279194;22;20298;-85
2022/11/26 01:52:14;;;;;;;25.27;11.90;;;7.00;99.90;;;;;;4994473;28;20573;-86
2022/11/26 01:54:42;;;;;;;29.27;12.33;;;7.00;99.90;;;;;;4994420;28;20234;-86
2022/11/26 01:57:20;;;;;;;34.70;12.83;;;7.00;99.90;;;;;;4993000;28;20184;-86
2022/11/26 01:59:53;;;;;;;26.88;12.50;;;7.00;99.90;;;;;;4994357;28;20598;-86
2022/11/26 02:02:22;;;;;;;23.77;11.67;;;7.10;99.90;;;;;;4994516;28;20222;-86
2022/11/26 02:04:59;;;;;;;28.00;11.93;;;7.00;99.90;;;;;;4993258;28;20198;-86
2022/11/26 02:07:25;;;;;;;28.17;11.47;;;7.00;99.90;;;;;;5009635;28;20187;-87
2022/11/26 02:09:51;;;;;;;24.87;11.83;;;7.00;99.90;;;;;;4994520;28;20172;-86
2022/11/26 02:12:17;;;;;;;31.07;12.27;;;7.00;99.90;;;;;;4992802;28;20184;-86
2022/11/26 02:14:44;;;;;;;25.67;11.87;;;7.00;99.90;;;;;;4994163;28;20721;-86
2022/11/26 02:17:41;;;;;;;27.97;12.00;;;7.00;99.90;;;;;;4993044;28;20234;-87
2022/11/26 02:20:29;;;;;;;22.27;11.93;;;7.00;99.90;;;;;;4985315;28;20191;-86
2022/11/26 02:23:03;;;;;;;31.37;12.00;;;7.00;99.90;;;;;;5009511;28;20259;-86
2022/11/26 02:25:47;;;;;;;26.17;12.97;;;7.00;99.90;;;;;;5009783;28;20190;-86
2022/11/26 02:28:28;;;;;;;31.23;12.30;;;7.00;99.90;;;;;;5009194;28;20207;-86
2022/11/26 02:31:25;;;;;;;23.77;12.63;;;7.00;99.90;;;;;;4993945;28;20680;-86
2022/11/26 02:34:21;;;;;;;33.03;13.90;;;7.00;99.90;;;;;;4992940;28;20165;-86
2022/11/26 02:37:03;;;;;;;32.20;12.87;;;7.00;99.90;;;;;;4975666;28;20279;-87
2022/11/26 02:39:29;;;;;;;32.93;12.37;;;7.00;99.90;;;;;;4976724;28;20157;-86
2022/11/26 02:41:58;;;;;;;28.53;12.13;;;7.00;99.90;;;;;;4976404;28;20329;-86
2022/11/26 02:44:30;;;;;;;31.10;13.63;;;7.10;99.90;;;;;;4976542;28;20183;-87
2022/11/26 02:47:06;;;;;;;37.03;13.50;;;7.10;99.90;;;;;;4992158;28;20185;-86
2022/11/26 02:49:34;;;;;;;29.93;13.40;;;7.00;99.90;;;;;;4978129;28;20216;-86
2022/11/26 02:52:03;;;;;;;29.70;12.07;;;7.00;99.90;;;;;;4993031;28;20639;-86
2022/11/26 02:54:32;;;;;;;29.33;13.30;;;7.00;99.90;;;;;;4996610;28;20188;-87
2022/11/26 02:57:01;;;;;;;36.40;13.87;;;7.00;99.90;;;;;;4995989;28;20187;-86
2022/11/26 02:59:27;;;;;;;34.13;12.60;;;7.00;99.90;;;;;;4996276;28;20180;-88
2022/11/26 03:02:06;;;;;;;39.47;14.00;;;7.00;99.90;;;;;;4996369;28;20509;-86
2022/11/26 03:04:39;;;;;;;38.37;13.83;;;7.00;99.90;;;;;;4997325;28;20183;-86
2022/11/26 03:07:07;;;;;;;34.53;13.60;;;7.00;99.90;;;;;;4996217;28;20211;-86
2022/11/26 03:09:48;;;;;;;35.47;13.77;;;7.00;99.90;;;;;;4996037;28;20211;-86
2022/11/26 03:12:14;;;;;;;31.30;12.57;;;7.00;99.90;;;;;;4995920;28;20584;-86
2022/11/26 03:14:40;;;;;;;37.27;13.57;;;7.00;99.90;;;;;;4995746;28;20243;-87
2022/11/26 03:17:06;;;;;;;25.83;12.47;;;7.00;99.90;;;;;;4995797;28;20191;-87
2022/11/26 03:19:31;;;;;;;37.83;13.40;;;7.10;99.90;;;;;;4995914;28;20199;-86
2022/11/26 03:21:57;;;;;;;34.13;12.40;;;7.10;99.90;;;;;;4995922;28;20179;-87
2022/11/26 03:24:22;;;;;;;31.57;13.37;;;7.10;99.90;;;;;;4995745;28;20231;-86
2022/11/26 03:26:48;;;;;;;23.87;12.17;;;7.10;99.90;;;;;;4995391;28;20634;-86
2022/11/26 03:29:14;;;;;;;28.53;12.47;;;7.10;99.90;;;;;;4996963;28;20227;-86
2022/11/26 03:31:40;;;;;;;30.67;13.37;;;7.10;99.90;;;;;;4997054;28;20196;-87
2022/11/26 03:34:05;;;;;;;33.40;13.27;;;7.10;99.90;;;;;;4995532;28;20180;-87
2022/11/26 03:36:31;;;;;;;34.50;13.43;;;7.10;99.90;;;;;;4996763;28;20215;-86
2022/11/26 03:38:57;;;;;;;33.67;14.13;;;7.00;99.90;;;;;;5011836;28;20179;-86
2022/11/26 03:41:23;;;;;;;31.53;13.30;;;7.10;99.90;;;;;;5011881;28;20204;-86
2022/11/26 03:43:48;;;;;;;34.60;14.07;;;7.10;99.90;;;;;;4996490;28;20280;-85
2022/11/26 03:46:14;;;;;;;33.37;14.70;;;7.10;99.90;;;;;;4995378;28;20184;-86
2022/11/26 03:48:40;;;;;;;28.67;12.23;;;7.10;99.90;;;;;;4994772;28;20235;-87
2022/11/26 03:51:05;;;;;;;39.13;13.63;;;7.10;99.90;;;;;;4995446;28;20203;-86
2022/11/26 03:53:31;;;;;;;36.20;14.20;;;7.00;99.90;;;;;;4996466;28;20168;-86
2022/11/26 03:55:57;;;;;;;31.67;13.23;;;7.00;99.90;;;;;;4996384;28;20199;-87
2022/11/26 03:58:23;;;;;;;37.73;13.07;;;7.00;99.90;;;;;;4994921;28;20242;-87
2022/11/26 04:00:49;;;;;;;40.07;14.23;;;7.00;99.90;;;;;;4995192;28;20658;-87
2022/11/26 04:03:14;;;;;;;29.03;12.03;;;7.00;99.90;;;;;;4994835;28;20180;-87
2022/11/26 04:05:40;;;;;;;33.50;13.60;;;7.00;99.90;;;;;;4995046;28;20606;-86
2022/11/26 04:08:06;;;;;;;40.67;14.27;;;7.00;99.90;;;;;;4994917;28;20262;-86
2022/11/26 04:10:31;;;;;;;31.30;12.00;;;7.00;99.90;;;;;;4995118;28;20184;-86
2022/11/26 04:12:57;;;;;;;30.43;12.90;;;7.00;99.90;;;;;;4995905;28;20160;-87
2022/11/26 04:15:23;;;;;;;32.37;13.13;;;7.10;99.90;;;;;;4994846;28;20692;-86
2022/11/26 04:17:48;;;;;;;27.87;13.43;;;7.10;99.90;;;;;;4994784;28;20277;-85
2022/11/26 04:20:14;;;;;;;36.87;13.10;;;7.00;99.90;;;;;;5011025;28;20528;-86
2022/11/26 04:22:40;;;;;;;32.17;13.33;;;7.10;99.90;;;;;;4994877;28;20168;-86
2022/11/26 04:25:06;;;;;;;29.40;13.00;;;7.10;99.90;;;;;;4995777;28;20176;-86
2022/11/26 04:27:31;;;;;;;34.83;13.87;;;7.00;99.90;;;;;;4994061;28;20186;-86
2022/11/26 04:29:57;;;;;;;38.20;15.00;;;7.00;99.90;;;;;;4994553;28;20171;-85
2022/11/26 04:32:23;;;;;;;34.87;13.80;;;7.00;99.90;;;;;;4995823;28;20168;-86
2022/11/26 04:34:49;;;;;;;33.77;13.70;;;7.00;99.90;;;;;;4994316;28;20254;-86
2022/11/26 04:37:14;;;;;;;36.53;13.67;;;7.10;99.90;;;;;;4994393;28;20192;-86
2022/11/26 04:39:40;;;;;;;31.50;13.50;;;7.00;99.90;;;;;;4994399;28;20179;-86
2022/11/26 04:42:06;;;;;;;37.33;13.70;;;7.00;99.90;;;;;;4994099;28;20187;-86
2022/11/26 04:44:31;;;;;;;33.63;13.20;;;7.00;99.90;;;;;;4994191;28;20263;-86
2022/11/26 04:46:57;;;;;;;34.93;12.73;;;7.00;99.90;;;;;;4994128;28;20184;-86
2022/11/26 04:49:23;;;;;;;36.93;14.27;;;7.00;99.90;;;;;;4994071;28;20557;-86
2022/11/26 04:51:48;;;;;;;30.07;13.57;;;7.00;99.90;;;;;;4994185;28;20180;-86
2022/11/26 04:54:14;;;;;;;38.63;14.63;;;7.00;99.90;;;;;;4995423;28;20222;-86
2022/11/26 04:56:40;;;;;;;37.27;13.53;;;6.90;99.90;;;;;;4993849;28;20211;-86
2022/11/26 04:59:05;;;;;;;35.50;13.37;;;6.90;99.90;;;;;;4993480;28;20179;-87
2022/11/26 05:01:31;;;;;;;35.27;12.77;;;6.90;99.90;;;;;;4993555;28;20190;-87
2022/11/26 05:03:57;;;;;;;41.63;13.47;;;6.90;99.90;;;;;;4995068;28;20156;-86
2022/11/26 05:06:23;;;;;;;33.63;13.77;;;7.00;99.90;;;;;;4993893;28;20202;-87
2022/11/26 05:08:48;;;;;;;38.73;13.57;;;7.00;99.90;;;;;;4995291;28;20211;-87
2022/11/26 05:11:14;;;;;;;39.40;13.73;;;6.90;99.90;;;;;;4994935;28;20237;-86
2022/11/26 05:13:40;;;;;;;42.67;14.67;;;6.90;99.90;;;;;;4993486;28;20187;-87
2022/11/26 05:16:06;;;;;;;36.50;13.07;;;6.90;99.90;;;;;;4993652;28;20223;-87
2022/11/26 05:18:31;;;;;;;44.93;14.10;;;6.90;99.90;;;;;;4993644;28;20179;-87
2022/11/26 05:20:57;;;;;;;37.27;14.20;;;6.80;99.90;;;;;;4994888;28;20210;-87
2022/11/26 05:23:23;;;;;;;39.13;13.50;;;6.90;99.90;;;;;;4993527;28;20179;-87
2022/11/26 05:25:50;;;;;;;42.63;14.70;;;6.90;99.90;;;;;;4980779;28;20936;-87
2022/11/26 05:28:16;;;;;;;32.27;13.27;;;6.90;99.90;;;;;;4974083;28;20769;-87
2022/11/26 05:30:41;;;;;;;49.93;14.63;;;6.80;99.90;;;;;;4975326;28;20180;-87
2022/11/26 05:33:07;;;;;;;37.63;13.00;;;6.80;99.90;;;;;;4974185;28;20181;-87
2022/11/26 05:35:33;;;;;;;38.30;14.37;;;6.80;99.90;;;;;;4974136;28;20216;-87
2022/11/26 05:37:58;;;;;;;42.73;14.00;;;6.80;99.90;;;;;;4974088;28;20639;-87
2022/11/26 05:40:24;;;;;;;43.27;14.93;;;6.90;99.90;;;;;;4975221;28;20217;-87
2022/11/26 05:42:50;;;;;;;40.27;13.90;;;6.80;99.90;;;;;;4974845;28;20544;-87
2022/11/26 05:45:15;;;;;;;54.27;15.30;;;6.80;99.90;;;;;;4975291;28;20181;-87
2022/11/26 05:47:42;;;;;;;37.03;15.33;;;6.80;99.90;;;;;;4973633;28;20177;-86
2022/11/26 05:50:08;;;;;;;37.57;14.43;;;6.80;99.90;;;;;;4974107;28;20591;-87
2022/11/26 05:52:35;;;;;;;44.40;14.87;;;6.80;99.90;;;;;;4973952;28;20235;-87
2022/11/26 05:55:00;;;;;;;37.73;14.30;;;6.80;99.90;;;;;;4981772;28;20589;-87
2022/11/26 05:57:26;;;;;;;40.77;14.13;;;6.70;99.90;;;;;;5009274;28;20188;-87
2022/11/26 05:59:52;;;;;;;43.40;13.80;;;6.70;99.90;;;;;;5009528;28;20215;-87
2022/11/26 06:02:17;;;;;;;37.67;13.30;;;6.70;99.90;;;;;;5009690;28;20180;-87
2022/11/26 06:04:43;;;;;;;42.53;15.30;;;6.70;99.90;;;;;;4993249;28;20262;-87
2022/11/26 06:07:09;;;;;;;39.00;13.90;;;6.70;99.90;;;;;;5009462;28;20623;-87
2022/11/26 06:09:35;;;;;;;33.77;13.37;;;6.70;99.90;;;;;;5009520;28;20179;-87
2022/11/26 06:12:01;;;;;;;37.27;14.27;;;6.70;99.90;;;;;;4996714;28;20283;-87
2022/11/26 06:14:27;;;;;;;35.47;12.23;;;6.60;99.90;;;;;;5013133;28;20227;-87
2022/11/26 06:16:52;;;;;;;29.73;11.70;;;6.60;99.90;;;;;;5013480;28;20187;-88
2022/11/26 06:19:18;;;;;;;30.53;10.67;;;6.60;99.90;;;;;;5013478;28;20632;-87
2022/11/26 06:21:44;;;;;;;24.50;10.63;;;6.50;99.90;;;;;;5013340;28;20194;-87
2022/11/26 06:24:10;;;;;;;22.90;9.70;;;6.50;99.90;;;;;;5013378;28;20186;-87
2022/11/26 06:26:36;;;;;;;27.70;11.03;;;6.50;99.90;;;;;;4996810;28;20183;-87
2022/11/26 06:29:02;;;;;;;21.93;10.40;;;6.50;99.90;;;;;;4996676;28;20180;-87
2022/11/26 06:31:29;;;;;;;28.27;10.60;;;6.50;99.90;;;;;;4997109;28;20183;-88
2022/11/26 06:33:55;;;;;;;54.20;10.73;;;6.50;99.90;;;;;;4996903;28;20176;-87
2022/11/26 06:36:22;;;;;;;25.83;10.50;;;6.40;99.90;;;;;;4997826;28;20257;-87
2022/11/26 06:38:47;;;;;;;27.17;11.00;;;6.40;99.90;;;;;;4996804;28;20204;-88
2022/11/26 06:41:13;;;;;;;30.93;9.80;;;6.40;99.90;;;;;;4996582;28;20222;-87
2022/11/26 06:43:39;;;;;;;16.00;10.10;;;6.40;99.90;;;;;;4996471;28;20172;-87
2022/11/26 06:46:07;;;;;;;26.90;9.90;;;6.30;99.90;;;;;;4996378;28;20626;-87
2022/11/26 06:48:34;;;;;;;35.57;8.93;;;6.30;99.90;;;;;;4997550;28;20223;-87
2022/11/26 06:51:04;;;;;;;52.43;9.30;;;6.30;99.90;;;;;;4996720;28;20239;-87
2022/11/26 06:53:31;;;;;;;37.30;8.33;;;6.30;99.90;;;;;;4997771;28;20164;-87
2022/11/26 06:56:09;;;;;;;37.53;8.50;;;6.30;99.90;;;;;;4995243;28;20647;-86
2022/11/26 06:58:35;;;;;;;56.40;9.10;;;6.30;99.90;;;;;;5012890;28;20307;-87
2022/11/26 07:01:08;;;;;;;51.00;8.70;;;6.20;99.90;;;;;;5012744;28;20299;-87
2022/11/26 07:03:34;;;;;;;42.10;8.73;;;6.20;99.90;;;;;;4997557;28;20192;-87
2022/11/26 07:05:59;;;;;;;70.30;8.57;;;6.20;99.90;;;;;;5012621;28;20216;-87
2022/11/26 07:08:25;;;;;;;27.70;8.13;;;6.20;99.90;;;;;;5012565;28;20180;-87
2022/11/26 07:10:51;;;;;;;64.57;8.57;;;6.10;99.90;;;;;;4996078;28;20190;-87
2022/11/26 07:13:16;;;;;;;93.33;8.53;;;6.20;99.90;;;;;;5012419;28;20254;-87
2022/11/26 07:15:42;;;;;;;43.43;8.97;;;6.10;99.90;;;;;;4997066;28;20203;-87
2022/11/26 07:18:08;;;;;;;47.90;8.47;;;6.10;99.90;;;;;;4997172;28;20263;-87
2022/11/26 07:20:35;;;;;;;90.63;7.67;;;6.10;99.90;;;;;;5011971;28;20199;-87
2022/11/26 07:23:01;;;;;;;42.07;7.57;;;6.00;99.90;;;;;;5011344;28;20176;-87
2022/11/26 07:25:28;;;;;;;46.53;8.43;;;6.10;99.90;;;;;;5012050;28;20187;-87
2022/11/26 07:27:54;;;;;;;50.57;7.93;;;6.00;99.90;;;;;;5012237;28;20184;-87
2022/11/26 07:30:19;;;;;;;56.03;7.83;;;6.00;99.90;;;;;;5012388;28;20326;-87
2022/11/26 07:32:45;;;;;;;47.63;8.00;;;6.00;99.90;;;;;;4995960;28;20563;-87
2022/11/26 07:35:11;;;;;;;19.80;7.50;;;6.00;99.90;;;;;;5011924;28;20207;-87
2022/11/26 07:37:36;;;;;;;26.37;7.07;;;6.00;99.90;;;;;;5011838;28;20183;-86
2022/11/26 07:40:04;;;;;;;16.43;6.07;;;6.00;99.90;;;;;;4994912;28;20649;-87
2022/11/26 07:42:31;;;;;;;18.63;7.03;;;6.00;99.90;;;;;;4981762;28;20538;-87
2022/11/26 07:44:57;;;;;;;8.37;5.63;;;6.00;99.90;;;;;;4976162;28;20181;-88
2022/11/26 07:47:22;;;;;;;9.67;6.50;;;6.00;99.90;;;;;;4976026;28;20200;-87
2022/11/26 07:49:48;;;;;;;8.73;6.43;;;6.00;99.90;;;;;;4976696;28;20246;-87
2022/11/26 07:52:14;;;;;;;10.80;7.03;;;5.90;99.90;;;;;;4975824;28;20246;-87
2022/11/26 07:54:39;;;;;;;12.97;6.93;;;6.00;99.90;;;;;;4991309;28;20180;-87
2022/11/26 07:57:05;;;;;;;9.87;6.40;;;6.00;99.90;;;;;;4994772;28;20194;-88
2022/11/26 07:59:31;;;;;;;9.07;5.93;;;6.10;99.90;;;;;;4988022;28;20264;-87
2022/11/26 08:01:56;;;;;;;7.97;5.77;;;6.10;99.90;;;;;;4975580;28;20196;-87
2022/11/26 08:04:22;;;;;;;8.23;6.33;;;6.10;99.90;;;;;;4975243;28;20211;-87
2022/11/26 08:06:48;;;;;;;8.73;5.53;;;6.10;99.90;;;;;;4976650;28;20189;-87
2022/11/26 08:09:13;;;;;;;9.33;5.33;;;6.10;99.90;;;;;;4984268;28;20199;-87
2022/11/26 08:11:39;;;;;;;8.03;5.83;;;6.10;99.90;;;;;;4984563;28;20615;-87
2022/11/26 08:14:08;;;;;;;10.10;5.90;;;6.10;99.90;;;;;;5016352;28;20192;-87
2022/11/26 08:16:34;;;;;;;9.33;6.50;;;6.00;99.90;;;;;;4983978;28;20212;-87
2022/11/26 08:19:06;;;;;;;10.27;6.57;;;6.00;99.90;;;;;;4984208;28;20622;-86
2022/11/26 08:21:32;;;;;;;10.63;6.70;;;6.00;99.90;;;;;;4976556;28;20592;-87
2022/11/26 08:23:58;;;;;;;11.17;7.23;;;6.00;99.90;;;;;;4976468;28;20204;-86
2022/11/26 08:26:24;;;;;;;9.47;7.17;;;6.00;99.90;;;;;;4974681;28;20683;-86
2022/11/26 08:28:51;;;;;;;13.07;7.03;;;6.00;99.90;;;;;;4974968;28;20320;-86
2022/11/26 08:31:17;;;;;;;11.70;7.00;;;6.00;99.90;;;;;;4975897;28;20207;-87
2022/11/26 08:33:43;;;;;;;14.20;6.97;;;6.00;99.90;;;;;;4974626;28;20275;-85
2022/11/26 08:36:10;;;;;;;13.27;7.53;;;6.00;99.90;;;;;;4972232;28;20224;-85
2022/11/26 08:38:37;;;;;;;15.20;7.43;;;6.10;99.90;;;;;;4998897;28;20204;-85
2022/11/26 08:41:11;;;;;;;12.33;6.80;;;6.10;99.90;;;;;;4994172;28;20188;-85
2022/11/26 08:43:37;;;;;;;14.50;7.40;;;6.10;99.90;;;;;;4995051;28;20168;-85
2022/11/26 08:46:03;;;;;;;17.20;7.47;;;6.10;99.90;;;;;;4993721;28;20282;-85
2022/11/26 08:48:30;;;;;;;21.97;7.50;;;6.10;99.90;;;;;;4994655;28;20285;-85
2022/11/26 08:51:01;;;;;;;14.37;8.50;;;6.20;99.90;;;;;;4994903;28;20287;-85
2022/11/26 08:53:28;;;;;;;23.97;9.03;;;6.20;99.90;;;;;;4995552;28;20251;-86
2022/11/26 08:56:04;;;;;;;19.53;8.20;;;6.30;99.90;;;;;;5010193;28;20650;-86
2022/11/26 08:58:32;;;;;;;19.13;8.70;;;6.40;99.90;;;;;;5010370;28;20183;-85
2022/11/26 09:00:58;;;;;;;17.27;8.57;;;6.40;99.90;;;;;;4994008;28;20190;-85
2022/11/26 09:03:24;;;;;;;15.13;7.90;;;6.40;99.90;;;;;;4993928;28;20194;-86
2022/11/26 09:05:50;;;;;;;15.77;7.80;;;6.40;99.90;;;;;;4995272;28;20518;-85
2022/11/26 09:08:15;;;;;;;15.23;8.50;;;6.50;99.90;;;;;;4993816;28;20246;-86
2022/11/26 09:10:41;;;;;;;23.90;8.57;;;6.50;99.90;;;;;;5008929;28;20219;-85
2022/11/26 09:13:07;;;;;;;22.93;9.10;;;6.50;99.90;;;;;;4985454;28;20191;-86
2022/11/26 09:15:32;;;;;;;20.20;9.67;;;6.50;99.90;;;;;;4994847;28;20216;-85
2022/11/26 09:18:02;;;;;;;17.87;8.43;;;6.50;99.90;;;;;;4995006;28;20176;-85
2022/11/26 09:20:28;;;;;;;17.13;8.70;;;6.60;99.90;;;;;;5009992;28;20246;-85
2022/11/26 09:22:54;;;;;;;23.93;9.40;;;6.60;99.90;;;;;;4994892;28;20212;-85
2022/11/26 09:25:19;;;;;;;25.67;8.77;;;6.60;99.90;;;;;;4994697;28;20294;-86
2022/11/26 09:27:45;;;;;;;22.47;9.43;;;6.70;99.90;;;;;;5009762;28;20184;-85
2022/11/26 09:30:12;;;;;;;18.13;8.60;;;6.70;99.90;;;;;;4994731;28;20599;-85
2022/11/26 09:32:38;;;;;;;25.53;9.67;;;6.80;99.90;;;;;;5009927;28;20180;-85
2022/11/26 09:35:04;;;;;;;22.97;9.10;;;6.80;99.90;;;;;;4994742;28;20642;-85
2022/11/26 09:37:30;;;;;;;30.93;10.30;;;6.90;99.90;;;;;;4994516;28;20175;-85
2022/11/26 09:39:56;;;;;;;23.77;10.63;;;7.00;99.90;;;;;;4993405;28;20642;-85
2022/11/26 09:43:04;;;;;;;21.40;9.33;;;7.10;99.90;;;;;;4993188;28;20211;-86
2022/11/26 09:45:39;;;;;;;22.57;9.00;;;7.10;99.90;;;;;;4993207;28;20184;-84
2022/11/26 09:48:13;;;;;;;22.40;9.00;;;7.10;99.90;;;;;;4993080;28;20226;-86
2022/11/26 09:50:40;;;;;;;20.13;9.00;;;7.10;99.90;;;;;;4994715;28;20250;-86
2022/11/26 09:53:24;;;;;;;26.00;9.97;;;7.10;99.90;;;;;;4993161;28;20192;-86
2022/11/26 09:55:53;;;;;;;25.10;9.33;;;7.20;99.90;;;;;;4993601;28;20214;-86
2022/11/26 09:58:41;;;;;;;27.67;9.10;;;7.30;99.90;;;;;;4993281;28;20192;-86
2022/11/26 10:01:13;;;;;;;25.10;8.73;;;7.40;99.90;;;;;;4993137;28;20207;-85
2022/11/26 10:03:41;;;;;;;26.23;10.03;;;7.40;99.90;;;;;;4993119;28;20523;-85
2022/11/26 10:06:25;;;;;;;25.37;8.73;;;7.40;99.90;;;;;;5009555;28;20172;-85
2022/11/26 10:09:16;;;;;;;25.40;8.87;;;7.40;99.90;;;;;;4994428;28;20159;-86
2022/11/26 10:12:24;;;;;;;23.67;8.87;;;7.50;99.90;;;;;;5008926;28;20503;-85
2022/11/26 10:15:02;;;;;;;23.57;9.57;;;7.60;99.90;;;;;;4992464;28;20191;-86
2022/11/26 10:17:36;;;;;;;18.37;8.70;;;7.60;99.90;;;;;;4993139;28;20176;-86
2022/11/26 10:20:32;;;;;;;24.87;9.00;;;7.60;99.90;;;;;;5009275;28;20258;-86
2022/11/26 10:23:10;;;;;;;27.43;8.43;;;7.60;99.90;;;;;;4994202;28;20619;-86
2022/11/26 10:25:41;;;;;;;25.50;9.73;;;7.60;99.90;;;;;;4994010;28;20242;-85
2022/11/26 10:28:32;;;;;;;24.73;9.33;;;7.60;99.90;;;;;;4994044;28;20168;-86
2022/11/26 10:31:08;;;;;;;25.57;9.30;;;7.80;99.90;;;;;;4992946;28;20200;-88
2022/11/26 10:33:47;;;;;;;31.47;9.83;;;7.90;99.90;;;;;;5009471;28;20188;-86
2022/11/26 10:36:23;;;;;;;20.80;8.87;;;8.00;99.90;;;;;;4992871;28;20207;-86
2022/11/26 10:38:48;;;;;;;22.53;9.70;;;8.00;99.90;;;;;;4992907;28;20671;-86
2022/11/26 10:41:15;;;;;;;24.83;9.50;;;8.10;99.90;;;;;;4992607;28;20279;-86
2022/11/26 10:43:41;;;;;;;19.33;8.77;;;8.10;99.90;;;;;;4994057;28;20172;-86
2022/11/26 10:46:07;;;;;;;25.67;9.80;;;8.10;99.90;;;;;;4994129;28;20603;-86
2022/11/26 10:48:34;;;;;;;28.77;9.23;;;8.10;99.90;;;;;;5009033;28;20227;-87
2022/11/26 10:51:12;;;;;;;24.97;10.60;;;8.10;99.90;;;;;;5009086;28;20184;-86
2022/11/26 10:53:51;;;;;;;25.53;9.40;;;8.10;99.90;;;;;;5009038;28;20180;-86
2022/11/26 10:56:38;;;;;;;38.80;10.47;;;8.10;99.90;;;;;;5008597;28;20226;-86
2022/11/26 10:59:17;;;;;;;25.00;9.07;;;8.10;99.90;;;;;;4995998;28;20264;-86
2022/11/26 11:01:43;;;;;;;23.90;9.70;;;8.10;99.90;;;;;;4997475;28;20172;-86
2022/11/26 11:04:26;;;;;;;31.33;10.40;;;8.20;99.90;;;;;;4996171;28;20183;-86
2022/11/26 11:06:53;;;;;;;24.23;9.25;;;8.30;99.90;;;;;;4997438;28;20470;-86
2022/11/26 11:09:26;;;;;;;25.20;9.50;;;8.40;99.90;;;;;;4996300;28;20179;-86
2022/11/26 11:12:22;;;;;;;27.17;9.33;;;8.50;99.90;;;;;;4996009;28;20187;-86
2022/11/26 11:14:49;;;;;;;26.10;10.00;;;8.40;99.90;;;;;;4996308;28;20274;-87
2022/11/26 11:17:36;;;;;;;28.97;10.20;;;8.50;99.90;;;;;;4995959;28;20218;-86
2022/11/26 11:20:14;;;;;;;23.17;9.23;;;8.50;99.90;;;;;;4996292;28;20509;-86
2022/11/26 11:22:42;;;;;;;31.48;10.35;;;8.60;99.90;;;;;;4997424;28;20258;-87
2022/11/26 11:25:26;;;;;;;25.80;9.27;;;8.60;99.90;;;;;;4997257;28;20180;-86
2022/11/26 11:27:54;;;;;;;22.70;8.95;;;8.60;99.90;;;;;;4995081;28;20231;-88
2022/11/26 11:30:25;;;;;;;26.50;9.27;;;8.50;99.90;;;;;;5021544;28;20180;-87
2022/11/26 11:32:56;;;;;;;28.50;10.57;;;8.50;99.90;;;;;;4976364;28;20187;-88
2022/11/26 11:35:24;;;;;;;23.73;9.03;;;8.50;99.90;;;;;;4977795;28;20280;-87
2022/11/26 11:37:55;;;;;;;26.77;9.27;;;8.50;99.90;;;;;;4976465;28;20181;-87
2022/11/26 11:40:27;;;;;;;24.55;8.65;;;8.50;99.90;;;;;;4976202;28;20604;-87
2022/11/26 11:43:01;;;;;;;24.67;9.20;;;8.50;99.90;;;;;;4975948;28;20514;-86
2022/11/26 11:46:00;;;;;;;29.80;10.25;;;8.60;99.90;;;;;;4992294;28;20178;-88
2022/11/26 11:48:45;;;;;;;27.63;8.98;;;8.70;99.90;;;;;;4994767;28;20235;-87
2022/11/26 11:51:36;;;;;;;28.43;8.80;;;8.60;99.90;;;;;;4977008;28;20168;-87
2022/11/26 11:54:42;;;;;;;22.20;9.35;;;8.60;99.90;;;;;;4975841;28;20263;-87
2022/11/26 11:57:40;;;;;;;26.88;9.05;;;8.60;99.90;;;;;;4971666;28;20212;-87
2022/11/26 12:00:18;;;;;;;29.17;10.20;;;8.60;99.90;;;;;;4984524;28;20184;-88
2022/11/26 12:03:05;;;;;;;26.60;9.00;;;8.70;99.90;;;;;;4975553;28;20184;-88
2022/11/26 12:05:40;;;;;;;27.27;9.50;;;8.80;99.90;;;;;;5000804;28;20168;-86
2022/11/26 12:08:27;;;;;;;26.20;9.93;;;8.80;99.90;;;;;;4975196;28;20184;-87
2022/11/26 12:11:08;;;;;;;23.60;9.85;;;8.80;99.90;;;;;;5017530;28;20195;-86
2022/11/26 12:13:44;;;;;;;24.88;8.60;;;8.90;99.90;;;;;;4993486;28;20260;-88
2022/11/26 12:16:11;;;;;;;28.53;8.93;;;8.90;99.90;;;;;;4994746;28;20242;-87
2022/11/26 12:18:52;;;;;;;24.63;9.67;;;8.90;99.90;;;;;;4992470;28;20803;-88
2022/11/26 12:21:28;;;;;;;23.67;8.63;;;8.90;99.90;;;;;;4994789;28;20186;-87
2022/11/26 12:24:12;;;;;;;27.05;9.73;;;8.90;99.90;;;;;;4994594;28;20183;-88
2022/11/26 12:26:56;;;;;;;27.17;10.38;;;8.90;99.90;;;;;;4995006;28;20176;-86
2022/11/26 12:29:37;;;;;;;25.10;8.98;;;8.90;99.90;;;;;;4994377;28;20279;-87
2022/11/26 12:32:18;;;;;;;23.92;9.00;;;8.90;99.90;;;;;;4996160;28;20168;-86
2022/11/26 12:34:52;;;;;;;32.60;9.93;;;8.90;99.90;;;;;;5010220;28;20184;-87
2022/11/26 12:37:22;;;;;;;22.45;9.52;;;8.90;99.90;;;;;;5010328;28;20739;-85
2022/11/26 12:39:59;;;;;;;21.00;8.80;;;8.90;99.90;;;;;;4986562;28;20177;-86
2022/11/26 12:42:51;;;;;;;28.65;9.63;;;8.90;99.90;;;;;;5015451;28;20180;-89
2022/11/26 12:45:30;;;;;;;26.92;9.40;;;8.80;99.90;;;;;;5014762;28;20619;-86
2022/11/26 12:48:04;;;;;;;29.42;9.75;;;8.80;99.90;;;;;;4987193;28;20219;-87
2022/11/26 12:50:49;;;;;;;30.70;10.05;;;8.80;99.90;;;;;;4995104;28;20262;-86
2022/11/26 12:53:24;;;;;;;31.08;9.57;;;8.80;99.90;;;;;;4995583;28;20179;-88
2022/11/26 12:56:22;;;;;;;24.95;9.65;;;8.80;99.90;;;;;;4994079;28;20211;-86
2022/11/26 12:59:25;;;;;;;22.85;9.52;;;8.80;99.90;;;;;;4990832;28;20185;-90
2022/11/26 13:01:51;;;;;;;22.83;8.82;;;8.80;99.90;;;;;;4974719;28;20191;-86